sensor_id;sensor_type;location;lat;lon;timestamp;pressure;altitude;pressure_sealevel;temperature;humidity
64713;BME280;51140;45.340;5.980;2022-07-23T00:00:05;98223.28;;;27.21;100.00
64713;BME280;51140;45.340;5.980;2022-07-23T00:02:31;98222.91;;;27.09;100.00
64713;BME280;51140;45.340;5.980;2022-07-23T00:04:56;98223.00;;;27.16;100.00
64713;BME280;51140;45.340;5.980;2022-07-23T00:07:21;98224.66;;;27.17;100.00
64713;BME280;51140;45.340;5.980;2022-07-23T00:09:47;98231.78;;;27.39;100.00
64713;BME280;51140;45.340;5.980;2022-07-23T00:12:12;98238.06;;;27.46;100.00
64713;BME280;51140;45.340;5.980;2022-07-23T00:14:37;98252.81;;;27.42;100.00
64713;BME280;51140;45.340;5.980;2022-07-23T00:17:03;98253.38;;;27.23;100.00
64713;BME280;51140;45.340;5.980;2022-07-23T00:19:28;98251.75;;;27.14;100.00
64713;BME280;51140;45.340;5.980;2022-07-23T00:21:54;98261.78;;;27.35;100.00
64713;BME280;51140;45.340;5.980;2022-07-23T00:24:20;98266.75;;;27.38;100.00
64713;BME280;51140;45.340;5.980;2022-07-23T00:26:45;98272.66;;;27.33;100.00
64713;BME280;51140;45.340;5.980;2022-07-23T00:29:11;98273.56;;;27.26;100.00
64713;BME280;51140;45.340;5.980;2022-07-23T00:31:36;98271.47;;;27.36;100.00
64713;BME280;51140;45.340;5.980;2022-07-23T00:34:01;98275.03;;;27.28;100.00
64713;BME280;51140;45.340;5.980;2022-07-23T00:36:27;98283.28;;;27.41;100.00
64713;BME280;51140;45.340;5.980;2022-07-23T00:38:53;98293.88;;;27.50;100.00
64713;BME280;51140;45.340;5.980;2022-07-23T00:41:19;98293.59;;;27.30;100.00
64713;BME280;51140;45.340;5.980;2022-07-23T00:43:45;98298.66;;;27.39;100.00
64713;BME280;51140;45.340;5.980;2022-07-23T00:46:10;98309.47;;;27.46;100.00
64713;BME280;51140;45.340;5.980;2022-07-23T00:48:35;98308.84;;;27.59;100.00
64713;BME280;51140;45.340;5.980;2022-07-23T00:51:01;98324.50;;;27.70;100.00
64713;BME280;51140;45.340;5.980;2022-07-23T00:53:26;98327.91;;;27.64;100.00
64713;BME280;51140;45.340;5.980;2022-07-23T00:55:53;98331.44;;;27.56;100.00
64713;BME280;51140;45.340;5.980;2022-07-23T00:58:19;98329.69;;;27.48;100.00
64713;BME280;51140;45.340;5.980;2022-07-23T01:00:44;98331.59;;;27.63;100.00
64713;BME280;51140;45.340;5.980;2022-07-23T01:03:10;98337.06;;;27.46;100.00
64713;BME280;51140;45.340;5.980;2022-07-23T01:05:36;98340.00;;;27.52;100.00
64713;BME280;51140;45.340;5.980;2022-07-23T01:08:01;98334.09;;;27.41;100.00
64713;BME280;51140;45.340;5.980;2022-07-23T01:10:27;98336.50;;;27.36;100.00
64713;BME280;51140;45.340;5.980;2022-07-23T01:12:59;98337.06;;;27.46;100.00
64713;BME280;51140;45.340;5.980;2022-07-23T01:15:25;98347.88;;;27.53;100.00
64713;BME280;51140;45.340;5.980;2022-07-23T01:17:50;98347.47;;;27.41;100.00
64713;BME280;51140;45.340;5.980;2022-07-23T01:20:16;98350.94;;;27.27;100.00
64713;BME280;51140;45.340;5.980;2022-07-23T01:22:42;98345.31;;;27.22;100.00
64713;BME280;51140;45.340;5.980;2022-07-23T01:25:08;98356.00;;;27.22;100.00
64713;BME280;51140;45.340;5.980;2022-07-23T01:27:34;98354.81;;;27.02;100.00
64713;BME280;51140;45.340;5.980;2022-07-23T01:30:00;98353.00;;;26.94;100.00
64713;BME280;51140;45.340;5.980;2022-07-23T01:32:26;98348.63;;;26.70;100.00
64713;BME280;51140;45.340;5.980;2022-07-23T01:34:51;98336.88;;;26.57;100.00
64713;BME280;51140;45.340;5.980;2022-07-23T01:37:16;98341.09;;;26.51;100.00
64713;BME280;51140;45.340;5.980;2022-07-23T01:39:42;98343.03;;;26.57;100.00
64713;BME280;51140;45.340;5.980;2022-07-23T01:42:07;98339.50;;;26.65;100.00
64713;BME280;51140;45.340;5.980;2022-07-23T01:44:33;98347.63;;;26.71;100.00
64713;BME280;51140;45.340;5.980;2022-07-23T01:46:58;98333.97;;;26.66;100.00
64713;BME280;51140;45.340;5.980;2022-07-23T01:49:23;98336.22;;;26.77;100.00
64713;BME280;51140;45.340;5.980;2022-07-23T01:51:49;98343.78;;;26.74;100.00
64713;BME280;51140;45.340;5.980;2022-07-23T01:54:28;98330.75;;;26.71;100.00
64713;BME280;51140;45.340;5.980;2022-07-23T01:56:53;98333.84;;;26.60;100.00
64713;BME280;51140;45.340;5.980;2022-07-23T01:59:19;98322.94;;;26.69;100.00
64713;BME280;51140;45.340;5.980;2022-07-23T02:01:45;98315.63;;;26.63;100.00
64713;BME280;51140;45.340;5.980;2022-07-23T02:04:10;98320.06;;;26.48;100.00
64713;BME280;51140;45.340;5.980;2022-07-23T02:06:35;98318.41;;;26.47;100.00
64713;BME280;51140;45.340;5.980;2022-07-23T02:09:01;98318.03;;;26.50;100.00
64713;BME280;51140;45.340;5.980;2022-07-23T02:11:26;98310.22;;;26.48;100.00
64713;BME280;51140;45.340;5.980;2022-07-23T02:13:52;98309.41;;;26.40;100.00
64713;BME280;51140;45.340;5.980;2022-07-23T02:16:17;98294.09;;;26.26;100.00
64713;BME280;51140;45.340;5.980;2022-07-23T02:18:42;98287.78;;;26.18;100.00
64713;BME280;51140;45.340;5.980;2022-07-23T02:21:08;98278.44;;;26.22;100.00
64713;BME280;51140;45.340;5.980;2022-07-23T02:23:33;98271.00;;;26.33;100.00
64713;BME280;51140;45.340;5.980;2022-07-23T02:25:58;98268.19;;;26.34;100.00
64713;BME280;51140;45.340;5.980;2022-07-23T02:28:24;98280.25;;;26.22;100.00
64713;BME280;51140;45.340;5.980;2022-07-23T02:30:50;98280.38;;;26.37;100.00
64713;BME280;51140;45.340;5.980;2022-07-23T02:33:15;98279.03;;;26.33;100.00
64713;BME280;51140;45.340;5.980;2022-07-23T02:35:41;98271.69;;;26.43;100.00
64713;BME280;51140;45.340;5.980;2022-07-23T02:38:06;98258.34;;;26.35;100.00
64713;BME280;51140;45.340;5.980;2022-07-23T02:40:32;98261.31;;;26.40;100.00
64713;BME280;51140;45.340;5.980;2022-07-23T02:42:57;98257.63;;;26.49;100.00
64713;BME280;51140;45.340;5.980;2022-07-23T02:45:22;98248.81;;;26.63;100.00
64713;BME280;51140;45.340;5.980;2022-07-23T02:47:48;98256.94;;;26.70;100.00
64713;BME280;51140;45.340;5.980;2022-07-23T02:50:13;98254.09;;;26.71;100.00
64713;BME280;51140;45.340;5.980;2022-07-23T02:52:39;98259.16;;;26.66;100.00
64713;BME280;51140;45.340;5.980;2022-07-23T02:55:05;98260.94;;;26.74;100.00
64713;BME280;51140;45.340;5.980;2022-07-23T02:57:30;98264.28;;;26.99;100.00
64713;BME280;51140;45.340;5.980;2022-07-23T02:59:56;98275.19;;;26.89;100.00
64713;BME280;51140;45.340;5.980;2022-07-23T03:02:21;98282.00;;;26.69;100.00
64713;BME280;51140;45.340;5.980;2022-07-23T03:04:47;98277.44;;;26.54;100.00
64713;BME280;51140;45.340;5.980;2022-07-23T03:07:12;98289.66;;;26.49;100.00
64713;BME280;51140;45.340;5.980;2022-07-23T03:09:37;98297.03;;;26.47;100.00
64713;BME280;51140;45.340;5.980;2022-07-23T03:12:03;98308.09;;;26.36;100.00
64713;BME280;51140;45.340;5.980;2022-07-23T03:14:28;98314.44;;;26.35;100.00
64713;BME280;51140;45.340;5.980;2022-07-23T03:16:54;98334.59;;;26.45;100.00
64713;BME280;51140;45.340;5.980;2022-07-23T03:19:20;98363.75;;;26.55;100.00
64713;BME280;51140;45.340;5.980;2022-07-23T03:21:45;98369.63;;;26.50;100.00
64713;BME280;51140;45.340;5.980;2022-07-23T03:24:10;98386.56;;;26.27;100.00
64713;BME280;51140;45.340;5.980;2022-07-23T03:26:36;98400.63;;;26.12;100.00
64713;BME280;51140;45.340;5.980;2022-07-23T03:29:02;98408.47;;;26.14;100.00
64713;BME280;51140;45.340;5.980;2022-07-23T03:31:29;98409.59;;;26.28;100.00
64713;BME280;51140;45.340;5.980;2022-07-23T03:33:56;98418.44;;;26.28;100.00
64713;BME280;51140;45.340;5.980;2022-07-23T03:36:22;98413.41;;;26.41;100.00
64713;BME280;51140;45.340;5.980;2022-07-23T03:38:47;98412.47;;;26.65;100.00
64713;BME280;51140;45.340;5.980;2022-07-23T03:41:12;98416.50;;;26.61;100.00
64713;BME280;51140;45.340;5.980;2022-07-23T03:43:38;98417.59;;;26.44;100.00
64713;BME280;51140;45.340;5.980;2022-07-23T03:46:03;98415.41;;;26.31;100.00
64713;BME280;51140;45.340;5.980;2022-07-23T03:48:29;98413.44;;;26.25;100.00
64713;BME280;51140;45.340;5.980;2022-07-23T03:50:54;98412.56;;;26.41;100.00
64713;BME280;51140;45.340;5.980;2022-07-23T03:53:19;98415.19;;;26.57;100.00
64713;BME280;51140;45.340;5.980;2022-07-23T03:55:45;98412.78;;;26.23;100.00
64713;BME280;51140;45.340;5.980;2022-07-23T03:58:10;98396.53;;;25.77;100.00
64713;BME280;51140;45.340;5.980;2022-07-23T04:00:36;98381.88;;;25.73;100.00
64713;BME280;51140;45.340;5.980;2022-07-23T04:03:01;98375.84;;;25.79;100.00
64713;BME280;51140;45.340;5.980;2022-07-23T04:05:27;98365.66;;;25.83;100.00
64713;BME280;51140;45.340;5.980;2022-07-23T04:07:52;98360.81;;;26.73;100.00
64713;BME280;51140;45.340;5.980;2022-07-23T04:10:19;98373.56;;;26.63;100.00
64713;BME280;51140;45.340;5.980;2022-07-23T04:12:44;98380.84;;;26.38;100.00
64713;BME280;51140;45.340;5.980;2022-07-23T04:15:10;98382.81;;;25.97;100.00
64713;BME280;51140;45.340;5.980;2022-07-23T04:17:35;98374.50;;;25.83;100.00
64713;BME280;51140;45.340;5.980;2022-07-23T04:20:01;98372.63;;;25.92;100.00
64713;BME280;51140;45.340;5.980;2022-07-23T04:22:26;98373.66;;;25.91;100.00
64713;BME280;51140;45.340;5.980;2022-07-23T04:24:52;98365.53;;;26.23;100.00
64713;BME280;51140;45.340;5.980;2022-07-23T04:27:17;98359.84;;;26.27;100.00
64713;BME280;51140;45.340;5.980;2022-07-23T04:29:42;98359.31;;;26.31;100.00
64713;BME280;51140;45.340;5.980;2022-07-23T04:32:08;98360.16;;;26.32;100.00
64713;BME280;51140;45.340;5.980;2022-07-23T04:34:33;98367.63;;;26.05;100.00
64713;BME280;51140;45.340;5.980;2022-07-23T04:36:58;98367.59;;;26.13;100.00
64713;BME280;51140;45.340;5.980;2022-07-23T04:39:24;98361.38;;;26.21;100.00
64713;BME280;51140;45.340;5.980;2022-07-23T04:41:49;98366.19;;;26.34;100.00
64713;BME280;51140;45.340;5.980;2022-07-23T04:44:15;98366.47;;;26.47;100.00
64713;BME280;51140;45.340;5.980;2022-07-23T04:46:40;98367.88;;;26.66;100.00
64713;BME280;51140;45.340;5.980;2022-07-23T04:49:05;98367.16;;;26.33;100.00
64713;BME280;51140;45.340;5.980;2022-07-23T04:51:31;98374.88;;;26.28;100.00
64713;BME280;51140;45.340;5.980;2022-07-23T04:53:56;98383.53;;;26.30;100.00
64713;BME280;51140;45.340;5.980;2022-07-23T04:56:22;98386.56;;;26.35;100.00
64713;BME280;51140;45.340;5.980;2022-07-23T04:58:47;98396.88;;;26.38;100.00
64713;BME280;51140;45.340;5.980;2022-07-23T05:01:13;98417.34;;;26.62;100.00
64713;BME280;51140;45.340;5.980;2022-07-23T05:03:38;98424.44;;;26.77;100.00
64713;BME280;51140;45.340;5.980;2022-07-23T05:06:04;98434.03;;;26.64;100.00
64713;BME280;51140;45.340;5.980;2022-07-23T05:08:29;98454.53;;;26.71;100.00
64713;BME280;51140;45.340;5.980;2022-07-23T05:10:55;98467.97;;;26.55;100.00
64713;BME280;51140;45.340;5.980;2022-07-23T05:13:20;98480.53;;;26.38;100.00
64713;BME280;51140;45.340;5.980;2022-07-23T05:15:46;98466.47;;;26.52;100.00
64713;BME280;51140;45.340;5.980;2022-07-23T05:18:11;98469.06;;;26.69;100.00
64713;BME280;51140;45.340;5.980;2022-07-23T05:20:37;98461.84;;;26.77;100.00
64713;BME280;51140;45.340;5.980;2022-07-23T05:23:03;98466.22;;;26.70;100.00
64713;BME280;51140;45.340;5.980;2022-07-23T05:25:28;98462.13;;;26.99;100.00
64713;BME280;51140;45.340;5.980;2022-07-23T05:27:54;98460.53;;;27.12;100.00
64713;BME280;51140;45.340;5.980;2022-07-23T05:30:19;98465.97;;;27.27;100.00
64713;BME280;51140;45.340;5.980;2022-07-23T05:32:45;98468.75;;;27.65;100.00
64713;BME280;51140;45.340;5.980;2022-07-23T05:35:10;98486.47;;;27.58;100.00
64713;BME280;51140;45.340;5.980;2022-07-23T05:37:36;98488.03;;;27.21;100.00
64713;BME280;51140;45.340;5.980;2022-07-23T05:40:06;98472.91;;;27.36;100.00
64713;BME280;51140;45.340;5.980;2022-07-23T05:42:37;98469.28;;;27.29;100.00
64713;BME280;51140;45.340;5.980;2022-07-23T05:45:03;98454.00;;;27.15;100.00
64713;BME280;51140;45.340;5.980;2022-07-23T05:47:29;98444.38;;;26.98;100.00
64713;BME280;51140;45.340;5.980;2022-07-23T05:50:03;98434.66;;;27.05;100.00
64713;BME280;51140;45.340;5.980;2022-07-23T05:52:29;98432.38;;;26.94;100.00
64713;BME280;51140;45.340;5.980;2022-07-23T05:54:54;98424.44;;;26.77;100.00
64713;BME280;51140;45.340;5.980;2022-07-23T05:57:20;98411.72;;;26.40;100.00
64713;BME280;51140;45.340;5.980;2022-07-23T05:59:45;98387.53;;;25.70;100.00
64713;BME280;51140;45.340;5.980;2022-07-23T06:02:10;98374.38;;;24.53;100.00
64713;BME280;51140;45.340;5.980;2022-07-23T06:04:36;98367.19;;;24.12;100.00
64713;BME280;51140;45.340;5.980;2022-07-23T06:07:01;98355.19;;;24.08;100.00
64713;BME280;51140;45.340;5.980;2022-07-23T06:09:27;98380.81;;;24.09;100.00
64713;BME280;51140;45.340;5.980;2022-07-23T06:11:52;98372.94;;;23.73;100.00
64713;BME280;51140;45.340;5.980;2022-07-23T06:14:17;98378.78;;;23.77;100.00
64713;BME280;51140;45.340;5.980;2022-07-23T06:16:43;98377.56;;;23.97;100.00
64713;BME280;51140;45.340;5.980;2022-07-23T06:19:08;98392.19;;;23.93;100.00
64713;BME280;51140;45.340;5.980;2022-07-23T06:21:34;98386.44;;;24.05;100.00
64713;BME280;51140;45.340;5.980;2022-07-23T06:23:59;98396.19;;;24.23;100.00
64713;BME280;51140;45.340;5.980;2022-07-23T06:26:24;98385.84;;;24.54;100.00
64713;BME280;51140;45.340;5.980;2022-07-23T06:28:50;98416.31;;;24.25;100.00
64713;BME280;51140;45.340;5.980;2022-07-23T06:31:15;98406.66;;;24.50;100.00
64713;BME280;51140;45.340;5.980;2022-07-23T06:33:41;98396.84;;;25.17;100.00
64713;BME280;51140;45.340;5.980;2022-07-23T06:36:06;98397.03;;;25.40;100.00
64713;BME280;51140;45.340;5.980;2022-07-23T06:38:32;98417.19;;;25.59;100.00
64713;BME280;51140;45.340;5.980;2022-07-23T06:40:57;98450.38;;;25.48;100.00
64713;BME280;51140;45.340;5.980;2022-07-23T06:43:22;98464.19;;;25.44;100.00
64713;BME280;51140;45.340;5.980;2022-07-23T06:45:48;98474.88;;;25.44;100.00
64713;BME280;51140;45.340;5.980;2022-07-23T06:48:13;98485.72;;;26.15;100.00
64713;BME280;51140;45.340;5.980;2022-07-23T06:50:38;98482.69;;;26.51;100.00
64713;BME280;51140;45.340;5.980;2022-07-23T06:53:04;98481.44;;;27.09;100.00
64713;BME280;51140;45.340;5.980;2022-07-23T06:55:29;98479.00;;;26.99;100.00
64713;BME280;51140;45.340;5.980;2022-07-23T06:57:55;98490.53;;;27.00;100.00
64713;BME280;51140;45.340;5.980;2022-07-23T07:00:20;98498.66;;;26.59;100.00
64713;BME280;51140;45.340;5.980;2022-07-23T07:02:45;98489.00;;;26.58;100.00
64713;BME280;51140;45.340;5.980;2022-07-23T07:05:11;98487.19;;;26.90;100.00
64713;BME280;51140;45.340;5.980;2022-07-23T07:07:36;98486.59;;;26.71;100.00
64713;BME280;51140;45.340;5.980;2022-07-23T07:10:05;98482.69;;;26.98;100.00
64713;BME280;51140;45.340;5.980;2022-07-23T07:12:30;98479.59;;;27.86;100.00
64713;BME280;51140;45.340;5.980;2022-07-23T07:14:56;98478.81;;;27.77;100.00
64713;BME280;51140;45.340;5.980;2022-07-23T07:17:22;98477.03;;;27.24;100.00
64713;BME280;51140;45.340;5.980;2022-07-23T07:19:47;98472.38;;;27.87;100.00
64713;BME280;51140;45.340;5.980;2022-07-23T07:22:13;98470.97;;;28.14;100.00
64713;BME280;51140;45.340;5.980;2022-07-23T07:24:38;98480.53;;;28.60;100.00
64713;BME280;51140;45.340;5.980;2022-07-23T07:27:04;98473.34;;;28.46;100.00
64713;BME280;51140;45.340;5.980;2022-07-23T07:29:30;98479.06;;;28.43;100.00
64713;BME280;51140;45.340;5.980;2022-07-23T07:31:55;98480.56;;;28.46;100.00
64713;BME280;51140;45.340;5.980;2022-07-23T07:34:20;98485.81;;;28.54;100.00
64713;BME280;51140;45.340;5.980;2022-07-23T07:36:46;98473.72;;;29.87;100.00
64713;BME280;51140;45.340;5.980;2022-07-23T07:39:11;98467.19;;;29.97;100.00
64713;BME280;51140;45.340;5.980;2022-07-23T07:41:37;98458.38;;;34.97;100.00
64713;BME280;51140;45.340;5.980;2022-07-23T07:44:02;98476.78;;;39.30;100.00
64713;BME280;51140;45.340;5.980;2022-07-23T07:46:27;98483.13;;;41.31;100.00
64713;BME280;51140;45.340;5.980;2022-07-23T07:48:53;98483.13;;;41.37;100.00
64713;BME280;51140;45.340;5.980;2022-07-23T07:51:19;98476.59;;;43.19;100.00
64713;BME280;51140;45.340;5.980;2022-07-23T07:53:44;98474.13;;;43.17;99.25
64713;BME280;51140;45.340;5.980;2022-07-23T07:56:10;98470.88;;;42.20;97.53
64713;BME280;51140;45.340;5.980;2022-07-23T07:58:35;98463.84;;;44.17;90.65
64713;BME280;51140;45.340;5.980;2022-07-23T08:01:00;98467.97;;;43.85;97.48
64713;BME280;51140;45.340;5.980;2022-07-23T08:03:27;98471.66;;;45.05;93.99
64713;BME280;51140;45.340;5.980;2022-07-23T08:05:52;98467.13;;;44.19;89.57
64713;BME280;51140;45.340;5.980;2022-07-23T08:08:18;98472.75;;;44.32;92.46
64713;BME280;51140;45.340;5.980;2022-07-23T08:10:43;98469.63;;;46.05;78.66
64713;BME280;51140;45.340;5.980;2022-07-23T08:13:15;98463.59;;;46.63;76.33
64713;BME280;51140;45.340;5.980;2022-07-23T08:15:41;98464.22;;;46.87;76.14
64713;BME280;51140;45.340;5.980;2022-07-23T08:18:06;98456.31;;;45.42;79.88
64713;BME280;51140;45.340;5.980;2022-07-23T08:20:32;98468.38;;;45.65;78.15
64713;BME280;51140;45.340;5.980;2022-07-23T08:23:02;98469.25;;;46.25;75.09
64713;BME280;51140;45.340;5.980;2022-07-23T08:25:33;98459.03;;;45.79;85.60
64713;BME280;51140;45.340;5.980;2022-07-23T08:28:01;98462.50;;;45.85;75.96
64713;BME280;51140;45.340;5.980;2022-07-23T08:30:27;98458.72;;;47.82;71.05
64713;BME280;51140;45.340;5.980;2022-07-23T08:32:56;98453.53;;;45.93;71.88
64713;BME280;51140;45.340;5.980;2022-07-23T08:35:31;98452.94;;;47.25;74.34
64713;BME280;51140;45.340;5.980;2022-07-23T08:37:57;98452.31;;;45.85;75.34
64713;BME280;51140;45.340;5.980;2022-07-23T08:40:26;98454.75;;;45.36;76.02
64713;BME280;51140;45.340;5.980;2022-07-23T08:42:52;98449.19;;;46.38;76.56
64713;BME280;51140;45.340;5.980;2022-07-23T08:45:22;98451.19;;;47.96;67.67
64713;BME280;51140;45.340;5.980;2022-07-23T08:47:55;98446.00;;;47.13;74.58
64713;BME280;51140;45.340;5.980;2022-07-23T08:50:22;98445.38;;;45.88;77.13
64713;BME280;51140;45.340;5.980;2022-07-23T08:52:49;98448.84;;;44.86;80.37
64713;BME280;51140;45.340;5.980;2022-07-23T08:55:21;98442.94;;;47.01;73.46
64713;BME280;51140;45.340;5.980;2022-07-23T08:57:51;98440.69;;;43.65;83.54
64713;BME280;51140;45.340;5.980;2022-07-23T09:00:18;98447.28;;;45.55;78.02
64713;BME280;51140;45.340;5.980;2022-07-23T09:02:45;98437.47;;;46.88;77.52
64713;BME280;51140;45.340;5.980;2022-07-23T09:05:11;98443.38;;;49.25;60.66
64713;BME280;51140;45.340;5.980;2022-07-23T09:07:57;98439.19;;;48.62;62.33
64713;BME280;51140;45.340;5.980;2022-07-23T09:10:23;98454.31;;;49.48;57.55
64713;BME280;51140;45.340;5.980;2022-07-23T09:12:49;98443.41;;;47.31;63.66
64713;BME280;51140;45.340;5.980;2022-07-23T09:15:14;98435.41;;;43.34;73.90
64713;BME280;51140;45.340;5.980;2022-07-23T09:17:41;98434.50;;;39.55;100.00
64713;BME280;51140;45.340;5.980;2022-07-23T09:20:13;98434.34;;;39.98;97.23
64713;BME280;51140;45.340;5.980;2022-07-23T09:22:44;98436.03;;;39.72;100.00
64713;BME280;51140;45.340;5.980;2022-07-23T09:25:13;98440.72;;;39.01;100.00
64713;BME280;51140;45.340;5.980;2022-07-23T09:27:55;98438.53;;;42.38;83.77
64713;BME280;51140;45.340;5.980;2022-07-23T09:30:26;98438.75;;;46.21;73.05
64713;BME280;51140;45.340;5.980;2022-07-23T09:33:13;98441.47;;;47.31;63.38
64713;BME280;51140;45.340;5.980;2022-07-23T09:35:56;98442.06;;;49.57;54.84
64713;BME280;51140;45.340;5.980;2022-07-23T09:38:23;98441.66;;;47.80;56.40
64713;BME280;51140;45.340;5.980;2022-07-23T09:41:09;98431.00;;;49.06;53.66
64713;BME280;51140;45.340;5.980;2022-07-23T09:43:35;98434.22;;;48.90;58.03
64713;BME280;51140;45.340;5.980;2022-07-23T09:46:27;98430.06;;;49.28;55.14
64713;BME280;51140;45.340;5.980;2022-07-23T09:48:56;98423.03;;;48.95;54.82
64713;BME280;51140;45.340;5.980;2022-07-23T09:51:22;98426.78;;;50.33;54.32
64713;BME280;51140;45.340;5.980;2022-07-23T09:54:04;98417.25;;;45.21;64.09
64713;BME280;51140;45.340;5.980;2022-07-23T09:56:30;98420.88;;;48.04;60.68
64713;BME280;51140;45.340;5.980;2022-07-23T09:58:56;98425.75;;;49.99;52.38
64713;BME280;51140;45.340;5.980;2022-07-23T10:01:31;98421.16;;;51.30;49.83
64713;BME280;51140;45.340;5.980;2022-07-23T10:03:56;98427.41;;;49.57;52.55
64713;BME280;51140;45.340;5.980;2022-07-23T10:06:23;98433.44;;;49.59;49.25
64713;BME280;51140;45.340;5.980;2022-07-23T10:08:50;98430.09;;;48.22;55.61
64713;BME280;51140;45.340;5.980;2022-07-23T10:11:16;98426.84;;;47.98;57.13
64713;BME280;51140;45.340;5.980;2022-07-23T10:13:42;98423.53;;;50.69;48.74
64713;BME280;51140;45.340;5.980;2022-07-23T10:16:18;98417.59;;;47.71;52.04
64713;BME280;51140;45.340;5.980;2022-07-23T10:18:43;98418.78;;;48.10;57.93
64713;BME280;51140;45.340;5.980;2022-07-23T10:21:09;98419.31;;;50.25;48.19
64713;BME280;51140;45.340;5.980;2022-07-23T10:23:45;98419.16;;;50.21;48.02
64713;BME280;51140;45.340;5.980;2022-07-23T10:26:24;98424.84;;;49.35;49.85
64713;BME280;51140;45.340;5.980;2022-07-23T10:29:35;98412.97;;;43.22;68.14
64713;BME280;51140;45.340;5.980;2022-07-23T10:32:04;98407.56;;;40.85;86.57
64713;BME280;51140;45.340;5.980;2022-07-23T10:34:44;98407.88;;;41.14;88.05
64713;BME280;51140;45.340;5.980;2022-07-23T10:37:17;98406.97;;;40.30;91.99
64713;BME280;51140;45.340;5.980;2022-07-23T10:40:09;98410.75;;;39.50;95.65
64713;BME280;51140;45.340;5.980;2022-07-23T10:42:35;98413.97;;;38.71;100.00
64713;BME280;51140;45.340;5.980;2022-07-23T10:45:01;98412.94;;;37.50;100.00
64713;BME280;51140;45.340;5.980;2022-07-23T10:47:30;98402.56;;;37.47;100.00
64713;BME280;51140;45.340;5.980;2022-07-23T10:50:27;98410.78;;;38.02;100.00
64713;BME280;51140;45.340;5.980;2022-07-23T10:53:16;98415.88;;;41.97;92.44
64713;BME280;51140;45.340;5.980;2022-07-23T10:55:47;98418.94;;;46.33;71.41
64713;BME280;51140;45.340;5.980;2022-07-23T11:01:35;98413.84;;;48.29;61.00
64713;BME280;51140;45.340;5.980;2022-07-23T11:04:02;98413.00;;;48.20;57.95
64713;BME280;51140;45.340;5.980;2022-07-23T11:09:38;98416.56;;;49.26;58.14
64713;BME280;51140;45.340;5.980;2022-07-23T11:17:23;98401.63;;;40.46;84.55
64713;BME280;51140;45.340;5.980;2022-07-23T11:27:47;98390.78;;;37.91;100.00
64713;BME280;51140;45.340;5.980;2022-07-23T11:35:36;98394.34;;;38.47;100.00
64713;BME280;51140;45.340;5.980;2022-07-23T11:38:04;98386.75;;;38.98;98.27
64713;BME280;51140;45.340;5.980;2022-07-23T11:40:31;98390.06;;;39.00;100.00
64713;BME280;51140;45.340;5.980;2022-07-23T11:43:08;98386.72;;;36.58;100.00
64713;BME280;51140;45.340;5.980;2022-07-23T11:45:38;98382.34;;;37.71;100.00
64713;BME280;51140;45.340;5.980;2022-07-23T11:48:06;98380.97;;;37.57;100.00
64713;BME280;51140;45.340;5.980;2022-07-23T11:50:32;98384.28;;;37.59;100.00
64713;BME280;51140;45.340;5.980;2022-07-23T11:52:58;98380.03;;;37.80;100.00
64713;BME280;51140;45.340;5.980;2022-07-23T11:55:24;98378.84;;;37.92;100.00
64713;BME280;51140;45.340;5.980;2022-07-23T11:57:51;98369.72;;;37.20;100.00
64713;BME280;51140;45.340;5.980;2022-07-23T12:00:25;98370.41;;;36.70;100.00
64713;BME280;51140;45.340;5.980;2022-07-23T12:02:53;98363.38;;;37.14;100.00
64713;BME280;51140;45.340;5.980;2022-07-23T12:05:21;98361.22;;;37.28;100.00
64713;BME280;51140;45.340;5.980;2022-07-23T12:07:52;98365.00;;;36.98;100.00
64713;BME280;51140;45.340;5.980;2022-07-23T12:10:21;98363.59;;;37.24;100.00
64713;BME280;51140;45.340;5.980;2022-07-23T12:12:53;98364.53;;;37.63;100.00
64713;BME280;51140;45.340;5.980;2022-07-23T12:16:05;98368.31;;;37.79;100.00
64713;BME280;51140;45.340;5.980;2022-07-23T12:18:09;98365.81;;;37.94;100.00
64713;BME280;51140;45.340;5.980;2022-07-23T12:20:37;98365.69;;;38.89;100.00
64713;BME280;51140;45.340;5.980;2022-07-23T12:23:05;98362.16;;;38.88;100.00
64713;BME280;51140;45.340;5.980;2022-07-23T12:25:36;98362.19;;;38.44;100.00
64713;BME280;51140;45.340;5.980;2022-07-23T12:30:37;98344.81;;;37.90;100.00
64713;BME280;51140;45.340;5.980;2022-07-23T12:33:03;98353.66;;;37.80;100.00
64713;BME280;51140;45.340;5.980;2022-07-23T12:35:43;98354.03;;;37.89;100.00
64713;BME280;51140;45.340;5.980;2022-07-23T12:38:12;98350.94;;;38.02;100.00
64713;BME280;51140;45.340;5.980;2022-07-23T12:43:10;98338.47;;;37.51;100.00
64713;BME280;51140;45.340;5.980;2022-07-23T12:45:55;98348.41;;;37.12;100.00
64713;BME280;51140;45.340;5.980;2022-07-23T12:48:28;98341.31;;;38.11;100.00
64713;BME280;51140;45.340;5.980;2022-07-23T12:51:17;98352.06;;;37.84;100.00
64713;BME280;51140;45.340;5.980;2022-07-23T12:53:44;98352.97;;;37.56;100.00
64713;BME280;51140;45.340;5.980;2022-07-23T12:56:12;98347.38;;;37.63;100.00
64713;BME280;51140;45.340;5.980;2022-07-23T13:04:15;98337.44;;;36.90;100.00
64713;BME280;51140;45.340;5.980;2022-07-23T13:09:13;98350.66;;;36.75;100.00
64713;BME280;51140;45.340;5.980;2022-07-23T13:11:40;98336.00;;;35.84;100.00
64713;BME280;51140;45.340;5.980;2022-07-23T13:14:06;98338.56;;;36.65;100.00
64713;BME280;51140;45.340;5.980;2022-07-23T13:16:32;98339.09;;;36.51;100.00
64713;BME280;51140;45.340;5.980;2022-07-23T13:18:59;98339.53;;;36.07;100.00
64713;BME280;51140;45.340;5.980;2022-07-23T13:21:26;98331.22;;;36.26;100.00
64713;BME280;51140;45.340;5.980;2022-07-23T13:23:52;98335.22;;;36.47;100.00
64713;BME280;51140;45.340;5.980;2022-07-23T13:26:18;98329.47;;;36.20;100.00
64713;BME280;51140;45.340;5.980;2022-07-23T13:28:43;98330.19;;;36.67;100.00
64713;BME280;51140;45.340;5.980;2022-07-23T13:31:09;98325.47;;;36.62;100.00